| time (UTC) | temp F | wind direction | speed MPH | gust MPH | rain 1hr in | rain 24hr in | rain mn in | humidity % | barometer mb |
| 20260505091531 | 52 | 250 | 11.0 | 0.0 | 0.00 | 0.00 | 0.00 | 71 | 971.8 |
| 20260505090107 | 52 | 253 | 7.0 | 0.0 | 0.00 | 0.00 | 0.00 | 71 | 971.8 |
| 20260505084529 | 53 | 270 | 9.0 | 0.0 | 0.00 | 0.00 | 0.00 | 74 | 972.1 |
| 20260505083050 | 53 | 265 | 9.0 | 0.0 | 0.00 | 0.00 | 0.00 | 80 | 971.4 |
| 20260505081531 | 54 | 259 | 10.0 | 0.0 | 0.00 | 0.00 | 0.00 | 80 | 971.4 |
| 20260505080100 | 54 | 255 | 12.0 | 0.0 | 0.00 | 0.00 | 0.00 | 73 | 971.7 |
| 20260505074531 | 55 | 247 | 11.0 | 0.0 | 0.00 | 0.00 | 0.00 | 75 | 971.0 |
| 20260505073052 | 55 | 242 | 10.0 | 0.0 | 0.00 | 0.00 | 0.00 | 75 | 971.0 |
| 20260505071531 | 56 | 230 | 11.0 | 0.0 | 0.00 | 0.00 | 0.00 | 75 | 971.0 |
| 20260505064531 | 57 | 250 | 10.0 | 0.0 | 0.00 | 0.00 | 0.00 | 77 | 971.8 |
| 20260505063048 | 57 | 241 | 11.0 | 0.0 | 0.00 | 0.00 | 0.00 | 76 | 971.0 |
| 20260505061532 | 58 | 239 | 11.0 | 0.0 | 0.00 | 0.00 | 0.00 | 76 | 971.0 |
| 20260505060108 | 58 | 239 | 10.0 | 0.0 | 0.00 | 0.00 | 0.00 | 76 | 971.0 |
| 20260505054532 | 59 | 245 | 12.0 | 0.0 | 0.00 | 0.00 | 0.00 | 73 | 972.0 |
| 20260505053055 | 59 | 221 | 13.0 | 0.0 | 0.00 | 0.00 | 0.00 | 61 | 971.0 |
| 20260505051531 | 61 | 224 | 13.0 | 0.0 | 0.00 | 0.00 | 0.00 | 61 | 971.1 |
| 20260505041531 | 62 | 205 | 15.0 | 0.0 | 0.00 | 0.00 | 0.00 | 64 | 971.0 |
| 20260505040104 | 62 | 203 | 15.0 | 0.0 | 0.00 | 0.00 | 0.00 | 64 | 971.0 |
| 20260505034528 | 63 | 205 | 15.0 | 0.0 | 0.00 | 0.00 | 0.00 | 61 | 970.7 |
| 20260505033051 | 62 | 196 | 16.0 | 0.0 | 0.00 | 0.00 | 0.00 | 58 | 970.5 |
| 20260505031531 | 62 | 210 | 15.0 | 0.0 | 0.00 | 0.00 | 0.00 | 58 | 970.5 |
| 20260505024531 | 63 | 202 | 16.0 | 0.0 | 0.00 | 0.00 | 0.00 | 54 | 971.1 |
| 20260505023052 | 64 | 216 | 19.0 | 0.0 | 0.00 | 0.00 | 0.00 | 56 | 971.2 |
| 20260505021531 | 65 | 215 | 18.0 | 0.0 | 0.00 | 0.00 | 0.00 | 56 | 971.1 |
| 20260505014531 | 64 | 213 | 15.0 | 0.0 | 0.00 | 0.00 | 0.00 | 57 | 970.2 |
| 20260505013049 | 65 | 212 | 16.0 | 0.0 | 0.00 | 0.00 | 0.00 | 57 | 970.2 |
| 20260505011531 | 64 | 215 | 15.0 | 0.0 | 0.00 | 0.00 | 0.00 | 57 | 970.2 |
| 20260505010057 | 65 | 208 | 15.0 | 0.0 | 0.00 | 0.00 | 0.00 | 57 | 970.2 |
| 20260505004531 | 66 | 205 | 11.0 | 0.0 | 0.00 | 0.00 | 0.00 | 37 | 970.7 |
| 20260505003048 | 67 | 208 | 9.0 | 0.0 | 0.00 | 0.00 | 0.00 | 41 | 971.5 |
| 20260505001530 | 68 | 208 | 7.0 | 0.0 | 0.00 | 0.00 | 0.00 | 41 | 971.5 |
| 20260504234530 | 70 | 233 | 8.0 | 0.0 | 0.00 | 0.00 | 0.00 | 31 | 971.2 |
| 20260504233049 | 71 | 248 | 10.0 | 0.0 | 0.00 | 0.00 | 0.00 | 31 | 971.2 |
| 20260504231530 | 71 | 255 | 12.0 | 0.0 | 0.00 | 0.00 | 0.00 | 31 | 971.2 |
| 20260504230056 | 72 | 257 | 13.0 | 0.0 | 0.00 | 0.00 | 0.00 | 31 | 971.2 |
| 20260504224531 | 73 | 257 | 16.0 | 0.0 | 0.00 | 0.00 | 0.00 | 36 | 970.7 |
| 20260504223051 | 73 | 253 | 17.0 | 0.0 | 0.00 | 0.00 | 0.00 | 36 | 971.1 |
| 20260504221530 | 73 | 250 | 18.0 | 0.0 | 0.00 | 0.00 | 0.00 | 36 | 971.1 |
| 20260504220104 | 73 | 249 | 17.0 | 0.0 | 0.00 | 0.00 | 0.00 | 36 | 971.1 |
| 20260504214529 | 73 | 251 | 17.0 | 0.0 | 0.00 | 0.00 | 0.00 | 35 | 972.2 |
| 20260504213051 | 73 | 253 | 18.0 | 0.0 | 0.00 | 0.00 | 0.00 | 35 | 972.2 |
| 20260504211529 | 73 | 252 | 19.0 | 0.0 | 0.00 | 0.00 | 0.00 | 34 | 971.2 |
| 20260504210101 | 73 | 245 | 20.0 | 0.0 | 0.00 | 0.00 | 0.00 | 34 | 971.2 |
| 20260504204535 | 74 | 242 | 19.0 | 0.0 | 0.00 | 0.00 | 0.00 | 36 | 971.9 |
| 20260504203045 | 74 | 237 | 17.0 | 0.0 | 0.00 | 0.00 | 0.00 | 36 | 971.9 |
| 20260504201536 | 74 | 233 | 19.0 | 0.0 | 0.00 | 0.00 | 0.00 | 36 | 971.9 |
| 20260504200058 | 74 | 228 | 19.0 | 0.0 | 0.00 | 0.00 | 0.00 | 38 | 971.2 |
| 20260504194536 | 74 | 227 | 19.0 | 0.0 | 0.00 | 0.00 | 0.00 | 38 | 972.3 |
| 20260504193055 | 74 | 224 | 19.0 | 0.0 | 0.00 | 0.00 | 0.00 | 38 | 972.3 |
| 20260504191536 | 73 | 225 | 19.0 | 0.0 | 0.00 | 0.00 | 0.00 | 38 | 972.3 |
| 20260504184532 | 73 | 229 | 18.0 | 0.0 | 0.00 | 0.00 | 0.00 | 30 | 973.2 |
| 20260504183056 | 73 | 229 | 18.0 | 0.0 | 0.00 | 0.00 | 0.00 | 32 | 972.9 |
| 20260504181536 | 73 | 230 | 17.0 | 0.0 | 0.00 | 0.00 | 0.00 | 32 | 972.9 |
| 20260504180107 | 73 | 232 | 17.0 | 0.0 | 0.00 | 0.00 | 0.00 | 32 | 972.9 |
| 20260504174535 | 72 | 233 | 18.0 | 0.0 | 0.00 | 0.00 | 0.00 | 31 | 973.8 |
| 20260504173051 | 72 | 231 | 18.0 | 0.0 | 0.00 | 0.00 | 0.00 | 35 | 973.6 |
| 20260504171535 | 71 | 229 | 18.0 | 0.0 | 0.00 | 0.00 | 0.00 | 35 | 973.6 |
| 20260504160104 | 69 | 222 | 16.0 | 0.0 | 0.00 | 0.00 | 0.00 | 36 | 974.0 |
| 20260504150106 | 64 | 223 | 14.0 | 0.0 | 0.00 | 0.00 | 0.00 | 53 | 974.4 |
| 20260504140109 | 60 | 224 | 12.0 | 0.0 | 0.00 | 0.00 | 0.00 | 60 | 974.4 |
| 20260504130104 | 55 | 211 | 11.0 | 0.0 | 0.00 | 0.00 | 0.00 | 66 | 974.3 |
| 20260504120106 | 50 | 205 | 8.0 | 0.0 | 0.00 | 0.00 | 0.00 | 77 | 974.7 |
| 20260504110103 | 45 | 202 | 6.0 | 0.0 | 0.00 | 0.00 | 0.00 | 84 | 974.0 |